sensor_id;sensor_type;location;lat;lon;timestamp;temperature;humidity
32446;DHT22;18899;50.748;7.102;2023-04-24T00:00:54;12.70;99.90
32446;DHT22;18899;50.748;7.102;2023-04-24T00:03:25;12.60;99.90
32446;DHT22;18899;50.748;7.102;2023-04-24T00:05:53;12.50;99.90
32446;DHT22;18899;50.748;7.102;2023-04-24T00:08:19;12.50;99.90
32446;DHT22;18899;50.748;7.102;2023-04-24T00:10:44;12.60;99.90
32446;DHT22;18899;50.748;7.102;2023-04-24T00:13:10;12.60;99.90
32446;DHT22;18899;50.748;7.102;2023-04-24T00:15:36;12.60;99.90
32446;DHT22;18899;50.748;7.102;2023-04-24T00:18:01;12.70;99.90
32446;DHT22;18899;50.748;7.102;2023-04-24T00:20:27;12.70;99.90
32446;DHT22;18899;50.748;7.102;2023-04-24T00:22:58;12.60;99.90
32446;DHT22;18899;50.748;7.102;2023-04-24T00:25:23;12.60;99.90
32446;DHT22;18899;50.748;7.102;2023-04-24T00:27:49;12.60;99.90
32446;DHT22;18899;50.748;7.102;2023-04-24T00:30:14;12.60;99.90
32446;DHT22;18899;50.748;7.102;2023-04-24T00:32:40;12.70;99.90
32446;DHT22;18899;50.748;7.102;2023-04-24T00:35:06;12.60;99.90
32446;DHT22;18899;50.748;7.102;2023-04-24T00:37:32;12.70;99.90
32446;DHT22;18899;50.748;7.102;2023-04-24T00:39:57;12.80;99.90
32446;DHT22;18899;50.748;7.102;2023-04-24T00:42:23;12.80;99.90
32446;DHT22;18899;50.748;7.102;2023-04-24T00:44:50;12.80;99.90
32446;DHT22;18899;50.748;7.102;2023-04-24T00:47:16;12.70;99.90
32446;DHT22;18899;50.748;7.102;2023-04-24T00:49:42;12.60;99.90
32446;DHT22;18899;50.748;7.102;2023-04-24T00:52:07;12.50;99.90
32446;DHT22;18899;50.748;7.102;2023-04-24T00:54:34;12.50;99.90
32446;DHT22;18899;50.748;7.102;2023-04-24T00:57:02;12.50;99.90
32446;DHT22;18899;50.748;7.102;2023-04-24T00:59:27;12.60;99.90
32446;DHT22;18899;50.748;7.102;2023-04-24T01:01:53;12.70;99.90
32446;DHT22;18899;50.748;7.102;2023-04-24T01:04:19;12.80;99.90
32446;DHT22;18899;50.748;7.102;2023-04-24T01:06:45;12.80;99.90
32446;DHT22;18899;50.748;7.102;2023-04-24T01:09:12;12.80;99.90
32446;DHT22;18899;50.748;7.102;2023-04-24T01:11:38;12.80;99.90
32446;DHT22;18899;50.748;7.102;2023-04-24T01:14:03;12.80;99.90
32446;DHT22;18899;50.748;7.102;2023-04-24T01:16:29;12.80;99.90
32446;DHT22;18899;50.748;7.102;2023-04-24T01:18:54;12.70;99.90
32446;DHT22;18899;50.748;7.102;2023-04-24T01:21:21;12.60;99.90
32446;DHT22;18899;50.748;7.102;2023-04-24T01:23:47;12.60;99.90
32446;DHT22;18899;50.748;7.102;2023-04-24T01:26:17;12.50;99.90
32446;DHT22;18899;50.748;7.102;2023-04-24T01:28:45;12.50;99.90
32446;DHT22;18899;50.748;7.102;2023-04-24T01:31:11;12.60;99.90
32446;DHT22;18899;50.748;7.102;2023-04-24T01:33:37;12.60;99.90
32446;DHT22;18899;50.748;7.102;2023-04-24T01:36:02;12.40;99.90
32446;DHT22;18899;50.748;7.102;2023-04-24T01:38:28;12.50;99.90
32446;DHT22;18899;50.748;7.102;2023-04-24T01:40:54;12.40;99.90
32446;DHT22;18899;50.748;7.102;2023-04-24T01:43:19;12.30;99.90
32446;DHT22;18899;50.748;7.102;2023-04-24T01:45:45;12.30;99.90
32446;DHT22;18899;50.748;7.102;2023-04-24T01:48:12;12.20;99.90
32446;DHT22;18899;50.748;7.102;2023-04-24T01:50:37;12.20;99.90
32446;DHT22;18899;50.748;7.102;2023-04-24T01:53:03;12.20;99.90
32446;DHT22;18899;50.748;7.102;2023-04-24T01:55:29;12.10;99.90
32446;DHT22;18899;50.748;7.102;2023-04-24T01:57:56;12.10;99.90
32446;DHT22;18899;50.748;7.102;2023-04-24T02:00:22;12.00;99.90
32446;DHT22;18899;50.748;7.102;2023-04-24T02:02:47;11.90;99.90
32446;DHT22;18899;50.748;7.102;2023-04-24T02:05:13;11.80;99.90
32446;DHT22;18899;50.748;7.102;2023-04-24T02:07:38;11.70;99.90
32446;DHT22;18899;50.748;7.102;2023-04-24T02:10:05;11.80;99.90
32446;DHT22;18899;50.748;7.102;2023-04-24T02:12:30;11.70;99.90
32446;DHT22;18899;50.748;7.102;2023-04-24T02:14:56;11.60;99.90
32446;DHT22;18899;50.748;7.102;2023-04-24T02:17:21;11.60;99.90
32446;DHT22;18899;50.748;7.102;2023-04-24T02:19:48;11.50;99.90
32446;DHT22;18899;50.748;7.102;2023-04-24T02:22:13;11.30;99.90
32446;DHT22;18899;50.748;7.102;2023-04-24T02:24:39;11.40;99.90
32446;DHT22;18899;50.748;7.102;2023-04-24T02:27:04;11.30;99.90
32446;DHT22;18899;50.748;7.102;2023-04-24T02:29:31;11.40;99.90
32446;DHT22;18899;50.748;7.102;2023-04-24T02:31:56;11.30;99.90
32446;DHT22;18899;50.748;7.102;2023-04-24T02:34:22;11.20;99.90
32446;DHT22;18899;50.748;7.102;2023-04-24T02:36:48;11.20;99.90
32446;DHT22;18899;50.748;7.102;2023-04-24T02:39:14;11.00;99.90
32446;DHT22;18899;50.748;7.102;2023-04-24T02:41:42;10.80;99.90
32446;DHT22;18899;50.748;7.102;2023-04-24T02:44:07;10.70;99.90
32446;DHT22;18899;50.748;7.102;2023-04-24T02:46:33;10.70;99.90
32446;DHT22;18899;50.748;7.102;2023-04-24T02:48:58;10.50;99.90
32446;DHT22;18899;50.748;7.102;2023-04-24T02:51:24;10.40;99.90
32446;DHT22;18899;50.748;7.102;2023-04-24T02:53:50;10.30;99.90
32446;DHT22;18899;50.748;7.102;2023-04-24T02:56:15;10.20;99.90
32446;DHT22;18899;50.748;7.102;2023-04-24T02:58:41;10.10;99.90
32446;DHT22;18899;50.748;7.102;2023-04-24T03:01:07;10.10;99.90
32446;DHT22;18899;50.748;7.102;2023-04-24T03:03:35;10.00;99.90
32446;DHT22;18899;50.748;7.102;2023-04-24T03:06:00;9.90;99.90
32446;DHT22;18899;50.748;7.102;2023-04-24T03:08:27;9.80;99.90
32446;DHT22;18899;50.748;7.102;2023-04-24T03:10:52;9.80;99.90
32446;DHT22;18899;50.748;7.102;2023-04-24T03:13:18;9.80;99.90
32446;DHT22;18899;50.748;7.102;2023-04-24T03:15:43;9.80;99.90
32446;DHT22;18899;50.748;7.102;2023-04-24T03:18:10;9.80;99.90
32446;DHT22;18899;50.748;7.102;2023-04-24T03:20:35;9.80;99.90
32446;DHT22;18899;50.748;7.102;2023-04-24T03:23:02;9.80;99.90
32446;DHT22;18899;50.748;7.102;2023-04-24T03:25:28;9.80;99.90
32446;DHT22;18899;50.748;7.102;2023-04-24T03:27:54;9.70;99.90
32446;DHT22;18899;50.748;7.102;2023-04-24T03:30:20;9.60;99.90
32446;DHT22;18899;50.748;7.102;2023-04-24T03:32:45;9.60;99.90
32446;DHT22;18899;50.748;7.102;2023-04-24T03:35:11;9.60;99.90
32446;DHT22;18899;50.748;7.102;2023-04-24T03:37:36;9.70;99.90
32446;DHT22;18899;50.748;7.102;2023-04-24T03:40:02;9.70;99.90
32446;DHT22;18899;50.748;7.102;2023-04-24T03:42:28;9.60;99.90
32446;DHT22;18899;50.748;7.102;2023-04-24T03:44:54;9.70;99.90
32446;DHT22;18899;50.748;7.102;2023-04-24T03:47:19;9.70;99.90
32446;DHT22;18899;50.748;7.102;2023-04-24T03:49:45;9.80;99.90
32446;DHT22;18899;50.748;7.102;2023-04-24T03:52:10;9.80;99.90
32446;DHT22;18899;50.748;7.102;2023-04-24T03:54:36;9.70;99.90
32446;DHT22;18899;50.748;7.102;2023-04-24T03:57:01;9.70;99.90
32446;DHT22;18899;50.748;7.102;2023-04-24T03:59:27;9.70;99.90
32446;DHT22;18899;50.748;7.102;2023-04-24T04:01:52;9.70;99.90
32446;DHT22;18899;50.748;7.102;2023-04-24T04:04:18;9.60;99.90
32446;DHT22;18899;50.748;7.102;2023-04-24T04:06:43;9.60;99.90
32446;DHT22;18899;50.748;7.102;2023-04-24T04:09:09;9.50;99.90
32446;DHT22;18899;50.748;7.102;2023-04-24T04:11:36;9.40;99.90
32446;DHT22;18899;50.748;7.102;2023-04-24T04:14:01;9.30;99.90
32446;DHT22;18899;50.748;7.102;2023-04-24T04:16:27;9.30;99.90
32446;DHT22;18899;50.748;7.102;2023-04-24T04:18:53;9.50;99.90
32446;DHT22;18899;50.748;7.102;2023-04-24T04:21:18;9.60;99.90
32446;DHT22;18899;50.748;7.102;2023-04-24T04:23:44;9.60;99.90
32446;DHT22;18899;50.748;7.102;2023-04-24T04:26:10;9.50;99.90
32446;DHT22;18899;50.748;7.102;2023-04-24T04:28:36;9.30;99.90
32446;DHT22;18899;50.748;7.102;2023-04-24T04:31:03;9.40;99.90
32446;DHT22;18899;50.748;7.102;2023-04-24T04:33:28;9.50;99.90
32446;DHT22;18899;50.748;7.102;2023-04-24T04:35:54;9.50;99.90
32446;DHT22;18899;50.748;7.102;2023-04-24T04:38:22;9.40;99.90
32446;DHT22;18899;50.748;7.102;2023-04-24T04:40:48;9.50;99.90
32446;DHT22;18899;50.748;7.102;2023-04-24T04:43:13;9.60;99.90
32446;DHT22;18899;50.748;7.102;2023-04-24T04:45:40;9.60;99.90
32446;DHT22;18899;50.748;7.102;2023-04-24T04:48:06;9.70;99.90
32446;DHT22;18899;50.748;7.102;2023-04-24T04:50:37;9.90;99.90
32446;DHT22;18899;50.748;7.102;2023-04-24T04:53:03;9.90;99.90
32446;DHT22;18899;50.748;7.102;2023-04-24T04:55:28;9.90;99.90
32446;DHT22;18899;50.748;7.102;2023-04-24T04:57:54;10.00;99.90
32446;DHT22;18899;50.748;7.102;2023-04-24T05:00:21;10.10;99.90
32446;DHT22;18899;50.748;7.102;2023-04-24T05:02:47;10.20;99.90
32446;DHT22;18899;50.748;7.102;2023-04-24T05:05:12;10.30;99.90
32446;DHT22;18899;50.748;7.102;2023-04-24T05:07:38;10.50;99.90
32446;DHT22;18899;50.748;7.102;2023-04-24T05:10:04;10.70;99.90
32446;DHT22;18899;50.748;7.102;2023-04-24T05:12:29;10.90;99.90
32446;DHT22;18899;50.748;7.102;2023-04-24T05:14:55;10.90;99.90
32446;DHT22;18899;50.748;7.102;2023-04-24T05:17:20;11.00;99.90
32446;DHT22;18899;50.748;7.102;2023-04-24T05:19:46;10.80;99.90
32446;DHT22;18899;50.748;7.102;2023-04-24T05:22:12;10.90;99.90
32446;DHT22;18899;50.748;7.102;2023-04-24T05:24:38;10.90;99.90
32446;DHT22;18899;50.748;7.102;2023-04-24T05:27:04;11.00;99.90
32446;DHT22;18899;50.748;7.102;2023-04-24T05:29:32;10.80;99.90
32446;DHT22;18899;50.748;7.102;2023-04-24T05:31:59;10.70;99.90
32446;DHT22;18899;50.748;7.102;2023-04-24T05:34:24;10.70;99.90
32446;DHT22;18899;50.748;7.102;2023-04-24T05:36:50;10.80;99.90
32446;DHT22;18899;50.748;7.102;2023-04-24T05:39:16;11.00;99.90
32446;DHT22;18899;50.748;7.102;2023-04-24T05:41:42;11.00;99.90
32446;DHT22;18899;50.748;7.102;2023-04-24T05:44:07;11.00;99.90
32446;DHT22;18899;50.748;7.102;2023-04-24T05:46:33;10.90;99.90
32446;DHT22;18899;50.748;7.102;2023-04-24T05:48:58;11.10;99.90
32446;DHT22;18899;50.748;7.102;2023-04-24T05:51:24;11.00;99.90
32446;DHT22;18899;50.748;7.102;2023-04-24T05:53:51;11.00;99.90
32446;DHT22;18899;50.748;7.102;2023-04-24T05:56:17;10.90;99.90
32446;DHT22;18899;50.748;7.102;2023-04-24T05:58:42;10.80;99.90
32446;DHT22;18899;50.748;7.102;2023-04-24T06:01:08;10.70;99.90
32446;DHT22;18899;50.748;7.102;2023-04-24T06:03:33;10.80;99.90
32446;DHT22;18899;50.748;7.102;2023-04-24T06:05:59;10.90;99.90
32446;DHT22;18899;50.748;7.102;2023-04-24T06:08:25;10.90;99.90
32446;DHT22;18899;50.748;7.102;2023-04-24T06:10:51;11.10;99.90
32446;DHT22;18899;50.748;7.102;2023-04-24T06:13:17;11.00;99.90
32446;DHT22;18899;50.748;7.102;2023-04-24T06:15:43;11.00;99.90
32446;DHT22;18899;50.748;7.102;2023-04-24T06:18:09;10.80;99.90
32446;DHT22;18899;50.748;7.102;2023-04-24T06:20:38;10.70;99.90
32446;DHT22;18899;50.748;7.102;2023-04-24T06:23:03;10.60;99.90
32446;DHT22;18899;50.748;7.102;2023-04-24T06:25:29;10.70;99.90
32446;DHT22;18899;50.748;7.102;2023-04-24T06:27:55;10.60;99.90
32446;DHT22;18899;50.748;7.102;2023-04-24T06:30:21;10.70;99.90
32446;DHT22;18899;50.748;7.102;2023-04-24T06:32:46;10.60;99.90
32446;DHT22;18899;50.748;7.102;2023-04-24T06:35:12;10.70;99.90
32446;DHT22;18899;50.748;7.102;2023-04-24T06:37:39;10.70;99.90
32446;DHT22;18899;50.748;7.102;2023-04-24T06:40:06;10.70;99.90
32446;DHT22;18899;50.748;7.102;2023-04-24T06:42:31;10.80;99.90
32446;DHT22;18899;50.748;7.102;2023-04-24T06:44:57;10.70;99.90
32446;DHT22;18899;50.748;7.102;2023-04-24T06:47:22;10.70;99.90
32446;DHT22;18899;50.748;7.102;2023-04-24T06:49:48;10.60;99.90
32446;DHT22;18899;50.748;7.102;2023-04-24T06:52:16;10.70;99.90
32446;DHT22;18899;50.748;7.102;2023-04-24T06:54:42;10.60;99.90
32446;DHT22;18899;50.748;7.102;2023-04-24T06:57:08;10.50;99.90
32446;DHT22;18899;50.748;7.102;2023-04-24T06:59:34;10.40;99.90
32446;DHT22;18899;50.748;7.102;2023-04-24T07:02:00;10.50;99.90
32446;DHT22;18899;50.748;7.102;2023-04-24T07:04:25;10.40;99.90
32446;DHT22;18899;50.748;7.102;2023-04-24T07:06:52;10.30;99.90
32446;DHT22;18899;50.748;7.102;2023-04-24T07:09:19;10.20;99.90
32446;DHT22;18899;50.748;7.102;2023-04-24T07:11:46;10.10;99.90
32446;DHT22;18899;50.748;7.102;2023-04-24T07:14:12;10.10;99.90
32446;DHT22;18899;50.748;7.102;2023-04-24T07:16:37;10.10;99.90
32446;DHT22;18899;50.748;7.102;2023-04-24T07:19:03;10.20;99.90
32446;DHT22;18899;50.748;7.102;2023-04-24T07:21:29;10.30;99.90
32446;DHT22;18899;50.748;7.102;2023-04-24T07:23:56;10.20;99.90
32446;DHT22;18899;50.748;7.102;2023-04-24T07:26:22;10.20;99.90
32446;DHT22;18899;50.748;7.102;2023-04-24T07:28:47;10.20;99.90
32446;DHT22;18899;50.748;7.102;2023-04-24T07:31:13;10.10;99.90
32446;DHT22;18899;50.748;7.102;2023-04-24T07:33:38;10.10;99.90
32446;DHT22;18899;50.748;7.102;2023-04-24T07:36:04;10.10;99.90
32446;DHT22;18899;50.748;7.102;2023-04-24T07:38:30;10.10;99.90
32446;DHT22;18899;50.748;7.102;2023-04-24T07:40:56;10.10;99.90
32446;DHT22;18899;50.748;7.102;2023-04-24T07:43:22;10.10;99.90
32446;DHT22;18899;50.748;7.102;2023-04-24T07:45:51;10.10;99.90
32446;DHT22;18899;50.748;7.102;2023-04-24T07:48:17;10.20;99.90
32446;DHT22;18899;50.748;7.102;2023-04-24T07:50:43;10.20;99.90
32446;DHT22;18899;50.748;7.102;2023-04-24T07:53:09;10.20;99.90
32446;DHT22;18899;50.748;7.102;2023-04-24T07:55:35;10.10;99.90
32446;DHT22;18899;50.748;7.102;2023-04-24T07:58:00;10.10;99.90
32446;DHT22;18899;50.748;7.102;2023-04-24T08:00:26;10.10;99.90
32446;DHT22;18899;50.748;7.102;2023-04-24T08:02:51;10.00;99.90
32446;DHT22;18899;50.748;7.102;2023-04-24T08:05:17;10.00;99.90
32446;DHT22;18899;50.748;7.102;2023-04-24T08:07:43;10.00;99.90
32446;DHT22;18899;50.748;7.102;2023-04-24T08:10:10;10.00;99.90
32446;DHT22;18899;50.748;7.102;2023-04-24T08:12:37;9.90;99.90
32446;DHT22;18899;50.748;7.102;2023-04-24T08:15:04;10.00;99.90
32446;DHT22;18899;50.748;7.102;2023-04-24T08:17:30;9.80;99.90
32446;DHT22;18899;50.748;7.102;2023-04-24T08:22:31;9.70;99.90
32446;DHT22;18899;50.748;7.102;2023-04-24T08:24:58;9.80;99.90
32446;DHT22;18899;50.748;7.102;2023-04-24T08:27:26;9.90;99.90
32446;DHT22;18899;50.748;7.102;2023-04-24T08:29:53;9.80;99.90
32446;DHT22;18899;50.748;7.102;2023-04-24T08:32:19;9.80;99.90
32446;DHT22;18899;50.748;7.102;2023-04-24T08:34:44;9.80;99.90
32446;DHT22;18899;50.748;7.102;2023-04-24T08:37:10;9.60;99.90
32446;DHT22;18899;50.748;7.102;2023-04-24T08:39:36;9.50;99.90
32446;DHT22;18899;50.748;7.102;2023-04-24T08:42:02;9.60;99.90
32446;DHT22;18899;50.748;7.102;2023-04-24T08:44:33;9.60;99.90
32446;DHT22;18899;50.748;7.102;2023-04-24T08:47:00;9.50;99.90
32446;DHT22;18899;50.748;7.102;2023-04-24T08:49:27;9.20;99.90
32446;DHT22;18899;50.748;7.102;2023-04-24T08:51:53;9.10;99.90
32446;DHT22;18899;50.748;7.102;2023-04-24T08:54:19;9.20;99.90
32446;DHT22;18899;50.748;7.102;2023-04-24T08:56:45;9.00;99.90
32446;DHT22;18899;50.748;7.102;2023-04-24T08:59:13;9.10;99.90
32446;DHT22;18899;50.748;7.102;2023-04-24T09:01:40;8.90;99.90
32446;DHT22;18899;50.748;7.102;2023-04-24T09:04:08;8.80;99.90
32446;DHT22;18899;50.748;7.102;2023-04-24T09:06:35;8.80;99.90
32446;DHT22;18899;50.748;7.102;2023-04-24T09:09:01;8.80;99.90
32446;DHT22;18899;50.748;7.102;2023-04-24T09:11:30;8.80;99.90
32446;DHT22;18899;50.748;7.102;2023-04-24T09:13:56;8.80;99.90
32446;DHT22;18899;50.748;7.102;2023-04-24T09:16:22;8.80;99.90
32446;DHT22;18899;50.748;7.102;2023-04-24T09:18:50;8.80;99.90
32446;DHT22;18899;50.748;7.102;2023-04-24T09:21:15;8.90;99.90
32446;DHT22;18899;50.748;7.102;2023-04-24T09:23:41;8.80;99.90
32446;DHT22;18899;50.748;7.102;2023-04-24T09:26:09;8.80;99.90
32446;DHT22;18899;50.748;7.102;2023-04-24T09:28:36;8.70;99.90
32446;DHT22;18899;50.748;7.102;2023-04-24T09:31:11;8.60;99.90
32446;DHT22;18899;50.748;7.102;2023-04-24T09:33:37;8.90;99.90
32446;DHT22;18899;50.748;7.102;2023-04-24T09:36:03;8.90;99.90
32446;DHT22;18899;50.748;7.102;2023-04-24T09:38:33;8.80;99.90
32446;DHT22;18899;50.748;7.102;2023-04-24T09:41:00;8.80;99.90
32446;DHT22;18899;50.748;7.102;2023-04-24T09:43:28;8.80;99.90
32446;DHT22;18899;50.748;7.102;2023-04-24T09:45:56;8.80;99.90
32446;DHT22;18899;50.748;7.102;2023-04-24T09:48:33;9.00;99.90
32446;DHT22;18899;50.748;7.102;2023-04-24T09:51:00;9.10;99.90
32446;DHT22;18899;50.748;7.102;2023-04-24T09:53:27;9.10;99.90
32446;DHT22;18899;50.748;7.102;2023-04-24T09:55:53;9.20;99.90
32446;DHT22;18899;50.748;7.102;2023-04-24T09:58:24;9.30;99.90
32446;DHT22;18899;50.748;7.102;2023-04-24T10:00:54;9.40;99.90
32446;DHT22;18899;50.748;7.102;2023-04-24T10:03:20;9.60;99.90
32446;DHT22;18899;50.748;7.102;2023-04-24T10:05:47;9.80;99.90
32446;DHT22;18899;50.748;7.102;2023-04-24T10:08:13;9.80;99.90
32446;DHT22;18899;50.748;7.102;2023-04-24T10:10:45;9.90;99.90
32446;DHT22;18899;50.748;7.102;2023-04-24T10:13:13;9.80;99.90
32446;DHT22;18899;50.748;7.102;2023-04-24T10:15:40;9.90;99.90
32446;DHT22;18899;50.748;7.102;2023-04-24T10:18:06;9.90;99.90
32446;DHT22;18899;50.748;7.102;2023-04-24T10:20:33;9.90;99.90
32446;DHT22;18899;50.748;7.102;2023-04-24T10:23:00;9.80;99.90
32446;DHT22;18899;50.748;7.102;2023-04-24T10:25:28;9.70;99.90
32446;DHT22;18899;50.748;7.102;2023-04-24T10:27:54;9.60;99.90
32446;DHT22;18899;50.748;7.102;2023-04-24T10:30:34;9.80;99.90
32446;DHT22;18899;50.748;7.102;2023-04-24T10:33:01;9.80;99.90
32446;DHT22;18899;50.748;7.102;2023-04-24T10:35:30;9.90;99.90
32446;DHT22;18899;50.748;7.102;2023-04-24T10:38:02;10.30;99.90
32446;DHT22;18899;50.748;7.102;2023-04-24T10:40:33;10.50;99.90
32446;DHT22;18899;50.748;7.102;2023-04-24T10:43:01;10.90;99.90
32446;DHT22;18899;50.748;7.102;2023-04-24T10:45:27;11.00;99.90
32446;DHT22;18899;50.748;7.102;2023-04-24T10:48:03;11.30;99.90
32446;DHT22;18899;50.748;7.102;2023-04-24T10:50:42;11.20;99.90
32446;DHT22;18899;50.748;7.102;2023-04-24T10:53:18;11.10;99.90
32446;DHT22;18899;50.748;7.102;2023-04-24T10:55:49;11.20;99.90
32446;DHT22;18899;50.748;7.102;2023-04-24T10:58:16;11.30;99.90
32446;DHT22;18899;50.748;7.102;2023-04-24T11:00:43;11.50;99.90
32446;DHT22;18899;50.748;7.102;2023-04-24T11:05:55;11.70;99.90
32446;DHT22;18899;50.748;7.102;2023-04-24T11:11:03;11.20;99.90
32446;DHT22;18899;50.748;7.102;2023-04-24T11:16:23;11.40;99.90
32446;DHT22;18899;50.748;7.102;2023-04-24T11:21:41;10.90;99.90
32446;DHT22;18899;50.748;7.102;2023-04-24T11:24:30;11.00;99.90
32446;DHT22;18899;50.748;7.102;2023-04-24T11:27:03;11.20;99.90
32446;DHT22;18899;50.748;7.102;2023-04-24T11:34:59;12.00;99.90
32446;DHT22;18899;50.748;7.102;2023-04-24T11:37:51;12.30;99.90
32446;DHT22;18899;50.748;7.102;2023-04-24T11:40:17;12.70;99.90
32446;DHT22;18899;50.748;7.102;2023-04-24T11:42:52;13.10;99.90
32446;DHT22;18899;50.748;7.102;2023-04-24T11:45:27;13.70;99.90
32446;DHT22;18899;50.748;7.102;2023-04-24T11:47:53;14.00;99.90
32446;DHT22;18899;50.748;7.102;2023-04-24T11:50:23;13.90;99.90
32446;DHT22;18899;50.748;7.102;2023-04-24T11:52:50;13.70;99.90
32446;DHT22;18899;50.748;7.102;2023-04-24T11:57:55;12.90;99.90
32446;DHT22;18899;50.748;7.102;2023-04-24T12:00:29;13.00;99.90
32446;DHT22;18899;50.748;7.102;2023-04-24T12:03:24;13.20;99.90
32446;DHT22;18899;50.748;7.102;2023-04-24T12:05:50;13.30;99.90
32446;DHT22;18899;50.748;7.102;2023-04-24T12:08:28;13.40;99.90
32446;DHT22;18899;50.748;7.102;2023-04-24T12:10:54;13.20;99.90
32446;DHT22;18899;50.748;7.102;2023-04-24T12:13:19;13.20;99.90
32446;DHT22;18899;50.748;7.102;2023-04-24T12:15:45;13.00;99.90
32446;DHT22;18899;50.748;7.102;2023-04-24T12:18:14;12.90;99.90
32446;DHT22;18899;50.748;7.102;2023-04-24T12:20:42;12.80;99.90
32446;DHT22;18899;50.748;7.102;2023-04-24T12:23:07;12.70;99.90
32446;DHT22;18899;50.748;7.102;2023-04-24T12:25:33;12.70;99.90
32446;DHT22;18899;50.748;7.102;2023-04-24T12:30:32;13.00;99.90
32446;DHT22;18899;50.748;7.102;2023-04-24T12:32:58;13.10;99.90
32446;DHT22;18899;50.748;7.102;2023-04-24T12:35:27;13.00;99.90
32446;DHT22;18899;50.748;7.102;2023-04-24T12:37:52;13.20;99.90
32446;DHT22;18899;50.748;7.102;2023-04-24T12:40:20;13.50;99.90
32446;DHT22;18899;50.748;7.102;2023-04-24T12:45:13;13.80;99.90
32446;DHT22;18899;50.748;7.102;2023-04-24T12:47:40;13.30;99.90
32446;DHT22;18899;50.748;7.102;2023-04-24T12:50:08;13.20;99.90
32446;DHT22;18899;50.748;7.102;2023-04-24T12:52:35;13.50;99.90
32446;DHT22;18899;50.748;7.102;2023-04-24T12:55:01;13.80;99.90
32446;DHT22;18899;50.748;7.102;2023-04-24T12:57:28;14.20;99.90
32446;DHT22;18899;50.748;7.102;2023-04-24T12:59:55;14.30;99.90
32446;DHT22;18899;50.748;7.102;2023-04-24T13:02:25;14.30;99.90
32446;DHT22;18899;50.748;7.102;2023-04-24T13:04:51;14.40;99.90
32446;DHT22;18899;50.748;7.102;2023-04-24T13:07:17;14.70;99.90
32446;DHT22;18899;50.748;7.102;2023-04-24T13:09:44;15.10;99.90
32446;DHT22;18899;50.748;7.102;2023-04-24T13:12:10;14.90;99.90
32446;DHT22;18899;50.748;7.102;2023-04-24T13:14:36;14.50;99.90
32446;DHT22;18899;50.748;7.102;2023-04-24T13:17:03;14.10;99.90
32446;DHT22;18899;50.748;7.102;2023-04-24T13:19:29;14.00;99.90
32446;DHT22;18899;50.748;7.102;2023-04-24T13:21:55;13.90;99.90
32446;DHT22;18899;50.748;7.102;2023-04-24T13:24:25;14.10;99.90
32446;DHT22;18899;50.748;7.102;2023-04-24T13:26:52;14.50;99.90
32446;DHT22;18899;50.748;7.102;2023-04-24T13:29:17;14.70;99.90
32446;DHT22;18899;50.748;7.102;2023-04-24T13:31:43;14.70;99.90
32446;DHT22;18899;50.748;7.102;2023-04-24T13:34:09;14.90;99.90
32446;DHT22;18899;50.748;7.102;2023-04-24T13:36:35;14.80;99.90
32446;DHT22;18899;50.748;7.102;2023-04-24T13:39:02;14.60;99.90
32446;DHT22;18899;50.748;7.102;2023-04-24T13:41:29;14.40;99.90
32446;DHT22;18899;50.748;7.102;2023-04-24T13:43:55;14.20;99.90
32446;DHT22;18899;50.748;7.102;2023-04-24T13:46:21;14.10;99.90
32446;DHT22;18899;50.748;7.102;2023-04-24T13:48:46;14.20;99.90
32446;DHT22;18899;50.748;7.102;2023-04-24T13:51:12;14.60;99.90
32446;DHT22;18899;50.748;7.102;2023-04-24T13:53:37;15.00;99.90
32446;DHT22;18899;50.748;7.102;2023-04-24T13:56:04;15.10;99.90
32446;DHT22;18899;50.748;7.102;2023-04-24T13:58:31;15.10;99.90
32446;DHT22;18899;50.748;7.102;2023-04-24T14:00:57;15.00;99.90
32446;DHT22;18899;50.748;7.102;2023-04-24T14:03:23;14.90;99.90
32446;DHT22;18899;50.748;7.102;2023-04-24T14:05:48;14.50;99.90
32446;DHT22;18899;50.748;7.102;2023-04-24T14:08:14;14.40;99.90
32446;DHT22;18899;50.748;7.102;2023-04-24T14:10:39;14.20;99.90
32446;DHT22;18899;50.748;7.102;2023-04-24T14:13:05;14.00;99.90
32446;DHT22;18899;50.748;7.102;2023-04-24T14:15:31;13.50;99.90
32446;DHT22;18899;50.748;7.102;2023-04-24T14:17:57;13.20;99.90
32446;DHT22;18899;50.748;7.102;2023-04-24T14:20:23;13.20;99.90
32446;DHT22;18899;50.748;7.102;2023-04-24T14:22:48;13.10;99.90
32446;DHT22;18899;50.748;7.102;2023-04-24T14:25:14;13.50;99.90
32446;DHT22;18899;50.748;7.102;2023-04-24T14:27:40;13.80;99.90
32446;DHT22;18899;50.748;7.102;2023-04-24T14:30:06;13.90;99.90
32446;DHT22;18899;50.748;7.102;2023-04-24T14:32:32;14.20;99.90
32446;DHT22;18899;50.748;7.102;2023-04-24T14:34:58;14.20;99.90
32446;DHT22;18899;50.748;7.102;2023-04-24T14:37:23;13.90;99.90
32446;DHT22;18899;50.748;7.102;2023-04-24T14:39:49;13.90;99.90
32446;DHT22;18899;50.748;7.102;2023-04-24T14:42:14;13.90;99.90
32446;DHT22;18899;50.748;7.102;2023-04-24T14:44:42;13.80;99.90
32446;DHT22;18899;50.748;7.102;2023-04-24T14:47:07;13.70;99.90
32446;DHT22;18899;50.748;7.102;2023-04-24T14:49:33;13.70;99.90
32446;DHT22;18899;50.748;7.102;2023-04-24T14:51:58;13.70;99.90
32446;DHT22;18899;50.748;7.102;2023-04-24T14:54:24;13.70;99.90
32446;DHT22;18899;50.748;7.102;2023-04-24T14:56:50;13.80;99.90
32446;DHT22;18899;50.748;7.102;2023-04-24T14:59:16;14.10;99.90
32446;DHT22;18899;50.748;7.102;2023-04-24T15:01:41;14.20;99.90
32446;DHT22;18899;50.748;7.102;2023-04-24T15:04:07;14.20;99.90
32446;DHT22;18899;50.748;7.102;2023-04-24T15:06:32;14.20;99.90
32446;DHT22;18899;50.748;7.102;2023-04-24T15:08:58;14.40;99.90
32446;DHT22;18899;50.748;7.102;2023-04-24T15:11:24;14.40;99.90
32446;DHT22;18899;50.748;7.102;2023-04-24T15:13:50;14.60;99.90
32446;DHT22;18899;50.748;7.102;2023-04-24T15:16:15;14.50;99.90
32446;DHT22;18899;50.748;7.102;2023-04-24T15:18:41;14.50;99.90
32446;DHT22;18899;50.748;7.102;2023-04-24T15:21:06;14.60;99.90
32446;DHT22;18899;50.748;7.102;2023-04-24T15:23:32;14.60;99.90
32446;DHT22;18899;50.748;7.102;2023-04-24T15:25:58;14.50;99.90
32446;DHT22;18899;50.748;7.102;2023-04-24T15:28:25;14.30;99.90
32446;DHT22;18899;50.748;7.102;2023-04-24T15:30:50;14.30;99.90
32446;DHT22;18899;50.748;7.102;2023-04-24T15:33:16;14.30;99.90
32446;DHT22;18899;50.748;7.102;2023-04-24T15:35:41;14.50;99.90
32446;DHT22;18899;50.748;7.102;2023-04-24T15:38:07;14.60;99.90
32446;DHT22;18899;50.748;7.102;2023-04-24T15:40:33;14.70;99.90
32446;DHT22;18899;50.748;7.102;2023-04-24T15:42:58;14.60;99.90
32446;DHT22;18899;50.748;7.102;2023-04-24T15:45:24;14.60;99.90
32446;DHT22;18899;50.748;7.102;2023-04-24T15:47:50;14.40;99.90
32446;DHT22;18899;50.748;7.102;2023-04-24T15:50:16;14.40;99.90
32446;DHT22;18899;50.748;7.102;2023-04-24T15:52:42;14.40;99.90
32446;DHT22;18899;50.748;7.102;2023-04-24T15:55:08;14.00;99.90
32446;DHT22;18899;50.748;7.102;2023-04-24T15:57:35;13.70;99.90